Time;durP1;ratioP1;P1;durP2;ratioP2;P2;SDS_P1;SDS_P2;PMS_P1;PMS_P2;Temp;Humidity;BMP_temperature;BMP_pressure;BME280_temperature;BME280_humidity;BME280_pressure;Samples;Min_cycle;Max_cycle;Signal;HPM_P1;HPM_P2
2022/10/05 00:02:23;;;;;;;14.30;9.00;;;15.00;99.90;;;;;;5062590;28;20029;-58
2022/10/05 00:04:55;;;;;;;16.13;8.82;;;15.00;99.90;;;;;;5061630;28;20060;-58
2022/10/05 00:07:22;;;;;;;15.43;8.90;;;15.10;99.90;;;;;;5062078;28;20041;-58
2022/10/05 00:09:57;;;;;;;16.77;8.65;;;14.90;99.90;;;;;;5060610;28;20041;-58
2022/10/05 00:12:24;;;;;;;13.88;9.13;;;15.00;99.90;;;;;;5061337;28;20049;-58
2022/10/05 00:14:55;;;;;;;14.05;8.73;;;15.00;99.90;;;;;;5062292;28;20045;-58
2022/10/05 00:17:26;;;;;;;14.68;8.30;;;15.00;99.90;;;;;;5061776;28;20040;-58
2022/10/05 00:19:52;;;;;;;12.27;7.73;;;15.00;99.90;;;;;;5062511;28;20397;-58
2022/10/05 00:22:32;;;;;;;13.45;8.00;;;15.00;99.90;;;;;;5062010;28;20167;-58
2022/10/05 00:25:00;;;;;;;13.68;7.30;;;15.00;99.90;;;;;;5061449;28;20095;-58
2022/10/05 00:27:35;;;;;;;11.38;8.05;;;15.00;99.90;;;;;;5061446;28;20120;-58
2022/10/05 00:30:13;;;;;;;12.23;7.75;;;15.00;99.90;;;;;;5061379;28;20041;-58
2022/10/05 00:32:39;;;;;;;14.70;7.70;;;15.10;99.90;;;;;;5062410;28;20842;-59
2022/10/05 00:35:05;;;;;;;12.68;7.93;;;14.90;99.90;;;;;;5061604;28;20053;-59
2022/10/05 00:37:31;;;;;;;10.63;7.38;;;15.00;99.90;;;;;;5061379;28;20114;-58
2022/10/05 00:39:56;;;;;;;12.57;7.60;;;14.90;99.90;;;;;;5068987;28;20439;-58
2022/10/05 00:42:31;;;;;;;12.30;7.85;;;15.00;99.90;;;;;;5081004;28;20188;-58
2022/10/05 00:45:29;;;;;;;10.98;7.43;;;15.00;99.90;;;;;;5081665;28;20037;-58
2022/10/05 00:48:04;;;;;;;14.65;8.00;;;15.00;99.90;;;;;;5079143;28;20072;-58
2022/10/05 00:50:30;;;;;;;13.43;7.47;;;15.00;99.90;;;;;;5081194;28;20052;-58
2022/10/05 00:53:07;;;;;;;12.25;7.47;;;15.10;99.90;;;;;;5081996;28;20120;-58
2022/10/05 00:55:54;;;;;;;11.02;6.93;;;15.00;99.90;;;;;;5081188;28;20044;-58
2022/10/05 00:58:30;;;;;;;11.82;6.60;;;15.00;99.90;;;;;;5081559;28;20055;-58
2022/10/05 01:01:08;;;;;;;11.40;6.38;;;15.00;99.90;;;;;;5061024;28;20052;-58
2022/10/05 01:04:02;;;;;;;11.55;6.72;;;15.00;99.90;;;;;;5060395;28;20049;-58
2022/10/05 01:06:46;;;;;;;11.98;6.95;;;14.90;99.90;;;;;;5061409;28;20060;-58
2022/10/05 01:09:25;;;;;;;9.38;6.05;;;15.00;99.90;;;;;;5060697;28;20082;-58
2022/10/05 01:11:58;;;;;;;12.85;6.57;;;14.90;99.90;;;;;;5060845;28;20055;-58
2022/10/05 01:14:52;;;;;;;12.27;6.40;;;14.90;99.90;;;;;;5061412;28;20045;-58
2022/10/05 01:17:32;;;;;;;10.25;6.20;;;15.00;99.90;;;;;;5060301;28;20037;-58
2022/10/05 01:20:29;;;;;;;9.88;6.03;;;14.90;99.90;;;;;;5061105;28;20053;-58
2022/10/05 01:23:02;;;;;;;12.07;6.05;;;15.00;99.90;;;;;;5061266;28;20063;-58
2022/10/05 01:25:59;;;;;;;13.80;6.72;;;14.90;99.90;;;;;;5058577;28;20060;-58
2022/10/05 01:28:32;;;;;;;10.35;5.70;;;14.90;99.90;;;;;;5058231;28;20049;-58
2022/10/05 01:31:19;;;;;;;10.88;5.68;;;14.90;99.90;;;;;;5060812;28;20041;-58
2022/10/05 01:34:09;;;;;;;11.57;5.82;;;15.00;99.90;;;;;;5059920;28;20045;-58
2022/10/05 01:36:37;;;;;;;9.70;5.53;;;15.00;99.90;;;;;;5060945;28;20087;-58
2022/10/05 01:39:42;;;;;;;9.32;5.18;;;14.90;99.90;;;;;;5059156;28;20100;-58
2022/10/05 01:42:29;;;;;;;9.60;5.70;;;15.00;99.90;;;;;;5059752;28;20049;-56
2022/10/05 01:45:18;;;;;;;9.63;5.53;;;15.00;99.90;;;;;;5059459;28;20067;-58
2022/10/05 01:47:53;;;;;;;10.55;5.85;;;14.90;99.90;;;;;;5060077;28;20069;-58
2022/10/05 01:50:35;;;;;;;10.75;6.25;;;15.00;99.90;;;;;;5060255;28;20052;-58
2022/10/05 01:53:03;;;;;;;;;;;15.00;99.90;;;;;;5061070;28;20052;-58
2022/10/05 01:55:47;;;;;;;11.13;5.97;;;14.90;99.90;;;;;;5059665;28;19931;-58
2022/10/05 01:58:25;;;;;;;14.13;6.50;;;15.00;99.90;;;;;;5060484;28;20086;-57
2022/10/05 02:01:14;;;;;;;12.05;7.18;;;14.90;99.90;;;;;;5079785;28;20045;-58
2022/10/05 02:03:58;;;;;;;12.07;7.22;;;14.90;99.90;;;;;;5079202;28;20052;-58
2022/10/05 02:06:29;;;;;;;11.55;6.50;;;14.90;99.90;;;;;;5080224;28;20104;-58
2022/10/05 02:09:16;;;;;;;11.65;6.63;;;14.90;99.90;;;;;;5079577;28;20044;-58
2022/10/05 02:11:46;;;;;;;12.20;6.65;;;14.90;99.90;;;;;;5079697;28;20508;-58
2022/10/05 02:14:15;;;;;;;13.95;6.95;;;14.80;99.90;;;;;;5080135;28;20044;-58
2022/10/05 02:16:49;;;;;;;13.48;7.13;;;14.90;99.90;;;;;;5079193;28;20068;-58
2022/10/05 02:19:24;;;;;;;12.70;6.85;;;14.80;99.90;;;;;;5080185;28;20063;-58
2022/10/05 02:21:57;;;;;;;12.05;6.97;;;14.80;99.90;;;;;;5079373;28;20048;-58
2022/10/05 02:24:29;;;;;;;14.80;7.15;;;14.80;99.90;;;;;;5079911;28;20048;-58
2022/10/05 02:26:55;;;;;;;;;;;14.90;99.90;;;;;;5080470;28;20051;-58
2022/10/05 02:29:24;;;;;;;13.32;7.53;;;14.80;99.90;;;;;;5079128;28;19920;-58
2022/10/05 02:32:01;;;;;;;13.00;7.32;;;14.70;99.90;;;;;;5079927;28;20045;-58
2022/10/05 02:34:36;;;;;;;13.23;7.65;;;14.80;99.90;;;;;;5077640;28;20052;-58
2022/10/05 02:37:36;;;;;;;11.45;8.00;;;14.80;99.90;;;;;;5079927;28;20040;-58
2022/10/05 02:40:26;;;;;;;11.95;7.70;;;14.80;99.90;;;;;;5079799;28;20067;-58
2022/10/05 02:42:55;;;;;;;12.57;7.82;;;14.80;99.90;;;;;;5079194;28;20078;-58
2022/10/05 02:45:56;;;;;;;14.43;8.10;;;14.80;99.90;;;;;;5079743;28;20048;-58
2022/10/05 02:48:33;;;;;;;13.02;7.22;;;14.80;99.90;;;;;;5079873;28;20517;-57
2022/10/05 02:51:15;;;;;;;12.43;6.85;;;14.90;99.90;;;;;;5078322;28;20044;-58
2022/10/05 02:53:47;;;;;;;12.90;7.63;;;14.90;99.90;;;;;;5079555;28;20059;-58
2022/10/05 02:56:20;;;;;;;13.10;7.20;;;14.80;99.90;;;;;;5079205;28;20040;-58
2022/10/05 02:59:04;;;;;;;11.45;7.47;;;14.90;99.90;;;;;;5076483;28;20524;-58
2022/10/05 03:01:39;;;;;;;14.02;7.70;;;14.90;99.90;;;;;;5059581;28;20055;-58
2022/10/05 03:04:34;;;;;;;12.10;7.30;;;14.90;99.90;;;;;;5058591;28;20049;-58
2022/10/05 03:07:17;;;;;;;11.25;6.30;;;14.90;99.90;;;;;;5058528;28;20053;-58
2022/10/05 03:10:12;;;;;;;11.30;6.28;;;14.90;99.90;;;;;;5059145;28;20240;-58
2022/10/05 03:13:16;;;;;;;11.90;6.55;;;14.90;99.90;;;;;;5058670;28;20043;-58
2022/10/05 03:15:48;;;;;;;13.02;6.70;;;14.90;99.90;;;;;;5059185;28;20040;-58
2022/10/05 03:18:31;;;;;;;10.23;5.85;;;14.90;99.90;;;;;;5059207;28;20083;-55
2022/10/05 03:21:12;;;;;;;11.75;6.22;;;14.80;99.90;;;;;;5058551;28;20051;-58
2022/10/05 03:24:15;;;;;;;10.13;5.95;;;14.80;99.90;;;;;;5059394;28;20045;-58
2022/10/05 03:27:02;;;;;;;10.27;6.00;;;14.90;99.90;;;;;;5059076;28;20073;-58
2022/10/05 03:29:30;;;;;;;10.88;5.68;;;14.80;99.90;;;;;;5058398;28;20080;-58
2022/10/05 03:32:17;;;;;;;10.90;5.70;;;14.90;99.90;;;;;;5059253;28;20128;-58
2022/10/05 03:34:58;;;;;;;11.68;5.50;;;14.90;99.90;;;;;;5058482;28;20038;-58
2022/10/05 03:38:02;;;;;;;10.60;5.65;;;14.90;99.90;;;;;;5058660;28;20041;-58
2022/10/05 03:40:37;;;;;;;9.85;5.75;;;14.80;99.90;;;;;;5061737;28;20052;-57
2022/10/05 03:43:08;;;;;;;11.07;5.38;;;14.90;99.90;;;;;;5078357;28;20107;-58
2022/10/05 03:45:34;;;;;;;10.60;6.00;;;14.90;99.90;;;;;;5077925;28;20041;-58
2022/10/05 03:48:13;;;;;;;9.60;5.50;;;14.90;99.90;;;;;;5078655;28;20057;-58
2022/10/05 03:51:01;;;;;;;9.77;5.55;;;14.90;99.90;;;;;;5078247;28;20128;-55
2022/10/05 03:53:32;;;;;;;9.27;5.47;;;14.90;99.90;;;;;;5077488;28;20052;-58
2022/10/05 03:56:38;;;;;;;12.40;5.07;;;14.90;99.90;;;;;;5078462;28;20041;-58
2022/10/05 03:59:40;;;;;;;11.13;5.10;;;14.90;99.90;;;;;;5073326;28;20097;-58
2022/10/05 04:02:21;;;;;;;9.13;4.93;;;14.90;99.90;;;;;;5055832;28;20069;-58
2022/10/05 04:04:58;;;;;;;8.60;4.70;;;14.80;99.90;;;;;;5061943;28;20053;-58
2022/10/05 04:07:28;;;;;;;8.43;4.25;;;14.80;99.90;;;;;;5062131;28;20124;-58
2022/10/05 04:09:56;;;;;;;9.75;4.32;;;14.90;99.90;;;;;;5062533;28;20120;-57
2022/10/05 04:12:26;;;;;;;9.15;4.38;;;14.90;99.90;;;;;;5061466;28;20049;-58
2022/10/05 04:15:13;;;;;;;10.38;5.20;;;14.90;99.90;;;;;;5062423;28;20057;-58
2022/10/05 04:17:43;;;;;;;9.32;4.85;;;14.80;99.90;;;;;;5060424;28;20053;-58
2022/10/05 04:20:35;;;;;;;9.90;5.20;;;14.90;99.90;;;;;;5062197;28;20049;-58
2022/10/05 04:23:10;;;;;;;10.10;4.80;;;14.90;99.90;;;;;;5061363;28;20040;-58
2022/10/05 04:26:01;;;;;;;10.18;5.05;;;14.80;99.90;;;;;;5061731;28;20052;-58
2022/10/05 04:28:51;;;;;;;9.38;4.32;;;14.80;99.90;;;;;;5062316;28;20051;-58
2022/10/05 04:31:36;;;;;;;10.07;4.90;;;14.90;99.90;;;;;;5061061;28;20075;-58
2022/10/05 04:34:13;;;;;;;11.13;4.47;;;14.80;99.90;;;;;;5061320;28;20069;-58
2022/10/05 04:36:47;;;;;;;9.95;4.35;;;14.80;99.90;;;;;;5060632;28;20044;-56
2022/10/05 04:39:22;;;;;;;7.60;4.15;;;14.80;99.90;;;;;;5062377;28;20041;-58
2022/10/05 04:42:08;;;;;;;8.82;4.72;;;14.70;99.90;;;;;;5081302;28;20044;-59
2022/10/05 04:45:00;;;;;;;9.45;4.85;;;14.80;99.90;;;;;;5081925;28;20053;-58
2022/10/05 04:47:44;;;;;;;;;;;14.80;99.90;;;;;;5081730;28;20044;-58
2022/10/05 04:50:37;;;;;;;8.02;4.10;;;14.70;99.90;;;;;;5080101;28;19920;-58
2022/10/05 04:53:16;;;;;;;8.63;4.60;;;14.80;99.90;;;;;;5081573;28;20493;-58
2022/10/05 04:56:02;;;;;;;7.78;4.28;;;14.70;99.90;;;;;;5081059;28;20070;-58
2022/10/05 04:58:54;;;;;;;10.55;5.40;;;14.80;99.90;;;;;;5081524;28;20037;-58
2022/10/05 05:01:19;;;;;;;;;;;14.70;99.90;;;;;;5062255;28;20061;-58
2022/10/05 05:04:01;;;;;;;11.05;5.32;;;14.80;99.90;;;;;;5060428;28;19947;-58
2022/10/05 05:06:33;;;;;;;9.55;5.40;;;14.70;99.90;;;;;;5056150;28;20053;-58
2022/10/05 05:09:19;;;;;;;12.30;6.35;;;14.70;99.90;;;;;;5057242;28;20056;-58
2022/10/05 05:11:51;;;;;;;11.07;5.57;;;14.70;99.90;;;;;;5056976;28;20068;-58
2022/10/05 05:14:58;;;;;;;10.23;6.18;;;14.80;99.90;;;;;;5057575;28;20048;-58
2022/10/05 05:17:46;;;;;;;11.85;6.50;;;14.80;99.90;;;;;;5034042;28;20081;-58
2022/10/05 05:20:36;;;;;;;10.55;6.32;;;14.70;99.90;;;;;;5057386;28;20061;-58
2022/10/05 05:23:09;;;;;;;14.18;7.30;;;14.70;99.90;;;;;;5056563;28;20051;-58
2022/10/05 05:26:01;;;;;;;13.43;7.30;;;14.70;99.90;;;;;;5057255;28;20782;-58
2022/10/05 05:28:44;;;;;;;12.77;6.97;;;14.70;99.90;;;;;;5056691;28;20587;-58
2022/10/05 05:31:34;;;;;;;12.07;7.50;;;14.70;99.90;;;;;;5057164;28;20559;-57
2022/10/05 05:34:05;;;;;;;12.02;7.43;;;14.70;99.90;;;;;;5056287;28;20122;-56
2022/10/05 05:37:10;;;;;;;12.20;6.83;;;14.70;99.90;;;;;;5057199;28;20052;-58
2022/10/05 05:40:01;;;;;;;11.05;6.70;;;14.70;99.90;;;;;;5060920;28;20282;-58
2022/10/05 05:42:38;;;;;;;11.68;6.53;;;14.70;99.90;;;;;;5075919;28;20074;-58
2022/10/05 05:45:22;;;;;;;11.55;7.32;;;14.70;99.90;;;;;;5076766;28;20044;-58
2022/10/05 05:47:53;;;;;;;11.98;7.65;;;14.70;99.90;;;;;;5076381;28;20530;-58
2022/10/05 05:50:24;;;;;;;11.20;6.82;;;14.70;99.90;;;;;;5074976;28;20063;-58
2022/10/05 05:53:02;;;;;;;12.50;6.47;;;14.70;99.90;;;;;;5076518;28;20041;-58
2022/10/05 05:56:03;;;;;;;12.32;7.65;;;14.70;99.90;;;;;;5076009;28;20048;-59
2022/10/05 05:58:56;;;;;;;11.23;6.47;;;14.70;99.90;;;;;;5066609;28;20062;-58
2022/10/05 06:01:32;;;;;;;11.43;6.95;;;14.70;99.90;;;;;;5056807;28;20056;-58
2022/10/05 06:04:10;;;;;;;13.00;6.43;;;14.70;99.90;;;;;;5055267;28;20627;-58
2022/10/05 06:06:41;;;;;;;12.32;6.00;;;14.70;99.90;;;;;;5055985;28;20140;-57
2022/10/05 06:09:16;;;;;;;11.98;7.07;;;14.70;99.90;;;;;;5054296;28;20052;-58
2022/10/05 06:11:55;;;;;;;11.60;6.32;;;14.70;99.90;;;;;;5057940;28;20500;-58
2022/10/05 06:14:29;;;;;;;10.55;6.88;;;14.70;99.90;;;;;;5073573;28;20075;-58
2022/10/05 06:17:25;;;;;;;12.73;7.40;;;14.70;99.90;;;;;;5074768;28;20044;-58
2022/10/05 06:19:56;;;;;;;11.82;7.53;;;14.60;99.90;;;;;;5074605;28;20044;-57
2022/10/05 06:22:32;;;;;;;10.83;7.23;;;14.70;99.90;;;;;;5074492;28;20041;-58
2022/10/05 06:25:10;;;;;;;10.60;6.93;;;14.60;99.90;;;;;;5074493;28;20404;-58
2022/10/05 06:27:59;;;;;;;11.48;6.97;;;14.70;99.90;;;;;;5075999;28;20044;-58
2022/10/05 06:30:30;;;;;;;13.45;6.97;;;14.70;99.90;;;;;;5075127;28;20060;-58
2022/10/05 06:33:22;;;;;;;12.93;7.10;;;14.80;99.90;;;;;;5075802;28;20158;-58
2022/10/05 06:36:14;;;;;;;12.07;6.95;;;14.70;99.90;;;;;;5074947;28;20074;-58
2022/10/05 06:38:57;;;;;;;12.20;6.03;;;14.70;99.90;;;;;;5075344;28;20721;-58
2022/10/05 06:42:03;;;;;;;10.55;7.20;;;14.70;99.90;;;;;;5073409;28;20122;-58
2022/10/05 06:44:52;;;;;;;12.35;7.05;;;14.70;99.90;;;;;;5073472;28;20093;-58
2022/10/05 06:47:45;;;;;;;11.98;6.93;;;14.80;99.90;;;;;;5063424;28;20064;-58
2022/10/05 06:50:29;;;;;;;11.57;6.65;;;14.80;99.90;;;;;;5065444;28;20047;-58
2022/10/05 06:53:19;;;;;;;13.07;6.32;;;14.80;99.90;;;;;;5075021;28;20090;-58
2022/10/05 06:56:28;;;;;;;11.48;6.40;;;14.80;99.90;;;;;;5073622;28;20554;-58
2022/10/05 06:59:34;;;;;;;10.93;6.20;;;14.80;99.90;;;;;;5066338;28;20118;-58
2022/10/05 07:02:20;;;;;;;9.38;5.85;;;14.80;99.90;;;;;;5032831;28;20111;-58
2022/10/05 07:05:29;;;;;;;11.05;6.20;;;14.80;99.90;;;;;;5052413;28;20049;-58
2022/10/05 07:08:03;;;;;;;11.45;6.38;;;14.90;99.90;;;;;;5054660;28;20218;-58
2022/10/05 07:10:31;;;;;;;10.52;5.82;;;14.90;99.90;;;;;;5053999;28;20546;-58
2022/10/05 07:13:21;;;;;;;11.00;6.05;;;14.90;99.90;;;;;;5054831;28;20045;-59
2022/10/05 07:15:56;;;;;;;10.55;5.97;;;14.90;99.90;;;;;;5055126;28;20049;-58
2022/10/05 07:18:38;;;;;;;11.52;6.10;;;15.00;99.90;;;;;;5055358;28;20049;-58
2022/10/05 07:21:30;;;;;;;11.73;6.43;;;15.00;99.90;;;;;;5053383;28;20624;-58
2022/10/05 07:23:56;;;;;;;;;;;15.00;99.90;;;;;;5056071;28;20088;-58
2022/10/05 07:26:31;;;;;;;9.60;5.60;;;14.90;99.90;;;;;;5059033;28;19924;-58
2022/10/05 07:29:06;;;;;;;9.65;6.00;;;14.90;99.90;;;;;;5066058;28;20060;-58
2022/10/05 07:31:55;;;;;;;10.25;5.53;;;15.00;99.90;;;;;;5055737;28;20123;-58
2022/10/05 07:35:02;;;;;;;10.10;5.30;;;15.00;99.90;;;;;;5054727;28;20033;-58
2022/10/05 07:37:56;;;;;;;8.57;5.22;;;15.10;99.90;;;;;;5064139;28;20040;-58
2022/10/05 07:40:46;;;;;;;8.10;4.53;;;15.10;99.90;;;;;;5062501;28;20076;-58
2022/10/05 07:43:32;;;;;;;8.73;4.55;;;15.10;99.90;;;;;;5062314;28;20057;-58
2022/10/05 07:46:06;;;;;;;8.00;4.55;;;15.10;99.90;;;;;;5060850;28;20090;-58
2022/10/05 07:48:54;;;;;;;9.20;4.20;;;15.20;99.90;;;;;;5061001;28;20048;-58
2022/10/05 07:51:37;;;;;;;9.35;4.50;;;15.20;99.90;;;;;;5059242;28;20062;-58
2022/10/05 07:54:21;;;;;;;8.52;4.10;;;15.30;99.90;;;;;;5055399;28;20605;-58
2022/10/05 07:57:02;;;;;;;7.43;4.38;;;15.20;99.90;;;;;;5060059;28;20048;-58
2022/10/05 07:59:38;;;;;;;8.95;4.22;;;15.20;99.90;;;;;;5061524;28;20048;-58
2022/10/05 08:02:44;;;;;;;8.15;3.92;;;15.20;99.90;;;;;;5062274;28;20052;-58
2022/10/05 08:05:27;;;;;;;9.05;4.22;;;15.40;99.90;;;;;;5064304;28;20052;-57
2022/10/05 08:08:24;;;;;;;8.07;3.95;;;15.40;99.90;;;;;;5063164;28;20379;-58
2022/10/05 08:11:08;;;;;;;8.32;3.90;;;15.40;99.90;;;;;;5062413;28;20126;-58
2022/10/05 08:13:46;;;;;;;6.30;3.53;;;15.30;99.90;;;;;;5063891;28;20087;-58
2022/10/05 08:16:13;;;;;;;7.35;3.40;;;15.30;99.90;;;;;;5062838;28;20571;-59
2022/10/05 08:18:55;;;;;;;6.15;3.25;;;15.30;99.90;;;;;;5063253;28;20045;-58
2022/10/05 08:21:34;;;;;;;7.38;3.40;;;15.30;99.90;;;;;;5060862;28;20134;-57
2022/10/05 08:24:21;;;;;;;7.20;3.03;;;15.40;99.90;;;;;;5062611;28;20679;-58
2022/10/05 08:27:03;;;;;;;6.50;3.00;;;15.40;99.90;;;;;;5062179;28;20781;-57
2022/10/05 08:29:55;;;;;;;6.95;2.85;;;15.40;99.90;;;;;;5059891;28;20463;-58
2022/10/05 08:32:49;;;;;;;5.90;2.70;;;15.50;99.90;;;;;;5065226;28;20060;-58
2022/10/05 08:35:26;;;;;;;5.38;2.40;;;15.60;99.90;;;;;;5060382;28;20059;-58
2022/10/05 08:37:53;;;;;;;6.05;2.28;;;15.60;99.90;;;;;;5064066;28;20053;-58
2022/10/05 08:40:38;;;;;;;7.25;2.80;;;15.80;99.90;;;;;;5063405;28;20040;-58
2022/10/05 08:43:41;;;;;;;6.80;2.00;;;15.70;99.90;;;;;;5061467;28;20036;-57
2022/10/05 08:46:34;;;;;;;5.03;1.88;;;15.70;99.90;;;;;;5064169;28;20053;-58
2022/10/05 08:49:44;;;;;;;5.55;2.28;;;15.80;99.90;;;;;;5066212;28;20045;-57
2022/10/05 08:52:19;;;;;;;5.25;2.00;;;15.80;99.90;;;;;;5043883;28;20172;-57
2022/10/05 08:54:45;;;;;;;4.82;2.40;;;15.90;99.90;;;;;;5079904;28;20040;-57
2022/10/05 08:57:38;;;;;;;6.22;2.33;;;16.00;99.90;;;;;;5081257;28;20106;-58
2022/10/05 09:00:11;;;;;;;4.32;1.75;;;16.00;99.90;;;;;;5071845;28;20040;-57
2022/10/05 09:02:55;;;;;;;5.07;1.83;;;16.00;99.90;;;;;;5071523;28;20076;-58
2022/10/05 09:06:02;;;;;;;5.85;2.10;;;16.10;99.90;;;;;;5069682;28;20112;-57
2022/10/05 09:08:37;;;;;;;5.18;2.10;;;16.00;99.90;;;;;;5078665;28;20072;-58
2022/10/05 09:11:17;;;;;;;5.45;2.25;;;16.10;99.90;;;;;;5080916;28;20471;-58
2022/10/05 09:14:06;;;;;;;5.68;1.90;;;16.10;99.90;;;;;;5061271;28;20060;-57
2022/10/05 09:17:00;;;;;;;4.93;2.08;;;16.20;99.90;;;;;;5060415;28;20132;-57
2022/10/05 09:19:37;;;;;;;5.78;2.30;;;16.10;99.90;;;;;;5061174;28;20045;-59
2022/10/05 09:22:47;;;;;;;6.28;2.40;;;16.20;99.90;;;;;;5060781;28;20073;-58
2022/10/05 09:25:36;;;;;;;7.00;2.50;;;16.30;99.90;;;;;;5037403;28;20192;-58
2022/10/05 09:28:27;;;;;;;5.40;2.60;;;16.30;99.90;;;;;;5059920;28;20057;-58
2022/10/05 09:31:22;;;;;;;6.50;3.05;;;16.40;99.90;;;;;;5060712;28;20112;-58
2022/10/05 09:34:17;;;;;;;5.25;2.47;;;16.30;99.90;;;;;;5058956;28;20452;-59
2022/10/05 09:37:24;;;;;;;7.40;2.60;;;16.20;99.90;;;;;;5061096;28;20105;-58
2022/10/05 09:39:50;;;;;;;7.82;3.50;;;16.30;99.90;;;;;;5067078;28;20113;-58
2022/10/05 09:42:38;;;;;;;7.63;3.42;;;16.30;99.90;;;;;;5078686;28;20102;-58
2022/10/05 09:45:41;;;;;;;6.32;3.17;;;16.40;99.90;;;;;;5080526;28;20053;-58
2022/10/05 09:48:34;;;;;;;6.90;3.08;;;16.50;99.90;;;;;;5080735;28;20044;-58
2022/10/05 09:51:18;;;;;;;7.00;3.30;;;16.60;99.90;;;;;;5079630;28;20053;-58
2022/10/05 09:54:05;;;;;;;8.90;3.72;;;16.80;99.90;;;;;;5079757;28;20098;-58
2022/10/05 09:56:55;;;;;;;6.53;3.47;;;16.60;99.90;;;;;;5080166;28;20493;-58
2022/10/05 09:59:58;;;;;;;6.80;3.10;;;16.70;99.90;;;;;;5071804;28;20103;-57
2022/10/05 10:02:51;;;;;;;8.18;3.55;;;16.80;99.90;;;;;;5059640;28;20095;-58
2022/10/05 10:05:49;;;;;;;7.60;3.28;;;16.80;99.90;;;;;;5048994;28;20064;-58
2022/10/05 10:08:36;;;;;;;7.15;3.17;;;16.80;99.90;;;;;;5058121;28;20045;-59
2022/10/05 10:11:37;;;;;;;8.25;3.10;;;16.80;99.90;;;;;;5058611;28;20513;-58
2022/10/05 10:14:50;;;;;;;6.20;2.75;;;16.80;99.90;;;;;;5060393;28;20478;-58
2022/10/05 10:17:44;;;;;;;9.18;3.40;;;16.80;99.90;;;;;;5037895;28;20160;-58
2022/10/05 10:20:29;;;;;;;6.32;2.92;;;16.80;99.90;;;;;;5029599;28;20600;-58
2022/10/05 10:23:19;;;;;;;6.25;2.97;;;16.70;99.90;;;;;;5066590;28;20536;-58
2022/10/05 10:25:56;;;;;;;6.85;2.97;;;16.80;99.90;;;;;;5068708;28;20048;-58
2022/10/05 10:29:14;;;;;;;6.35;2.92;;;16.70;99.90;;;;;;5072486;28;20052;-57
2022/10/05 10:32:13;;;;;;;8.13;3.40;;;16.60;99.90;;;;;;5047717;28;20127;-57
2022/10/05 10:35:03;;;;;;;7.60;2.85;;;16.60;99.90;;;;;;5047165;28;20106;-57
2022/10/05 10:37:56;;;;;;;7.15;3.10;;;16.60;99.90;;;;;;5067061;28;20052;-58
2022/10/05 10:40:41;;;;;;;7.68;3.15;;;16.60;99.90;;;;;;5072041;28;20059;-58
2022/10/05 10:43:39;;;;;;;6.32;3.40;;;16.60;99.90;;;;;;5068041;28;20041;-57
2022/10/05 10:46:23;;;;;;;6.60;3.20;;;16.60;99.90;;;;;;5067264;28;20079;-58
2022/10/05 10:49:14;;;;;;;6.35;3.40;;;16.60;99.90;;;;;;5068538;28;20056;-57
2022/10/05 10:52:02;;;;;;;7.50;3.23;;;16.50;99.90;;;;;;5077969;28;20516;-58
2022/10/05 10:54:57;;;;;;;5.85;3.30;;;16.50;99.90;;;;;;5078035;28;20044;-58
2022/10/05 10:57:29;;;;;;;6.10;3.05;;;16.40;99.90;;;;;;5079002;28;20048;-58
2022/10/05 11:00:22;;;;;;;7.85;3.85;;;16.40;99.90;;;;;;5066153;28;20413;-58
2022/10/05 11:02:51;;;;;;;7.25;3.38;;;16.40;99.90;;;;;;5048977;28;20257;-58
2022/10/05 11:05:45;;;;;;;7.20;3.47;;;16.40;99.90;;;;;;5059388;28;20045;-57
2022/10/05 11:08:35;;;;;;;7.13;3.40;;;16.40;99.90;;;;;;5048176;28;20574;-58
2022/10/05 11:11:29;;;;;;;7.47;3.47;;;16.30;99.90;;;;;;5058499;28;20037;-58
2022/10/05 11:14:01;;;;;;;8.25;3.90;;;16.40;99.90;;;;;;5065790;28;20151;-57
2022/10/05 11:16:32;;;;;;;;;;;16.40;99.90;;;;;;5065685;28;20069;-58
2022/10/05 11:19:07;;;;;;;6.25;3.78;;;16.40;99.90;;;;;;5065975;28;19972;-57
2022/10/05 11:22:06;;;;;;;8.82;4.10;;;16.30;99.90;;;;;;5064995;28;20095;-58
2022/10/05 11:25:05;;;;;;;8.48;3.80;;;16.30;99.90;;;;;;5064823;28;20119;-58
2022/10/05 11:28:04;;;;;;;6.60;3.92;;;16.40;99.90;;;;;;5065105;28;20068;-58
2022/10/05 11:30:47;;;;;;;8.68;4.00;;;16.30;99.90;;;;;;5056070;28;20115;-58
2022/10/05 11:33:32;;;;;;;7.80;4.10;;;16.20;99.90;;;;;;5071978;28;20047;-59
2022/10/05 11:36:19;;;;;;;7.22;4.15;;;16.20;99.90;;;;;;5085712;28;20049;-58
2022/10/05 11:39:15;;;;;;;7.15;4.03;;;16.20;99.90;;;;;;5085035;28;20048;-58
2022/10/05 11:42:06;;;;;;;6.97;3.60;;;16.20;99.90;;;;;;5065242;28;20602;-59
2022/10/05 11:45:10;;;;;;;5.72;3.20;;;16.30;99.90;;;;;;5065464;28;20045;-58
2022/10/05 11:48:02;;;;;;;6.53;3.10;;;16.20;99.90;;;;;;5063966;28;20091;-58
2022/10/05 11:51:00;;;;;;;5.97;3.65;;;16.30;99.90;;;;;;5042317;28;20627;-58
2022/10/05 11:53:47;;;;;;;6.25;3.30;;;16.20;99.90;;;;;;5065623;28;20076;-58
2022/10/05 11:56:22;;;;;;;7.25;3.67;;;16.30;99.90;;;;;;5064992;28;20323;-58
2022/10/05 11:58:53;;;;;;;6.57;3.45;;;16.20;99.90;;;;;;5067671;28;20048;-58
2022/10/05 12:01:28;;;;;;;6.47;3.47;;;16.20;99.90;;;;;;5085516;28;20080;-58
2022/10/05 12:04:26;;;;;;;8.65;2.97;;;16.30;99.90;;;;;;5084614;28;20056;-58
2022/10/05 12:07:01;;;;;;;6.82;2.88;;;16.30;99.90;;;;;;5072636;28;20056;-58
2022/10/05 12:10:12;;;;;;;7.65;2.92;;;16.30;99.90;;;;;;5085041;28;20064;-58
2022/10/05 12:12:38;;;;;;;5.20;2.88;;;16.30;99.90;;;;;;5084152;28;20048;-58
2022/10/05 12:15:22;;;;;;;7.93;2.55;;;16.30;99.90;;;;;;5084425;28;20037;-59
2022/10/05 12:17:51;;;;;;;5.97;2.72;;;16.40;99.90;;;;;;5085017;28;20449;-58
2022/10/05 12:20:31;;;;;;;7.10;2.70;;;16.40;99.90;;;;;;5083975;28;20142;-58
2022/10/05 12:23:04;;;;;;;4.43;2.25;;;16.40;99.90;;;;;;5083608;28;20068;-57
2022/10/05 12:25:40;;;;;;;5.20;2.60;;;16.40;99.90;;;;;;5080891;28;20071;-58
2022/10/05 12:28:14;;;;;;;5.88;2.80;;;16.30;99.90;;;;;;5080281;28;20048;-58
2022/10/05 12:30:57;;;;;;;7.13;2.80;;;16.40;99.90;;;;;;5081263;28;20053;-58
2022/10/05 12:33:31;;;;;;;5.47;2.67;;;16.40;99.90;;;;;;5079703;28;20058;-58
2022/10/05 12:36:06;;;;;;;5.63;2.63;;;16.40;99.90;;;;;;5081771;28;20080;-58
2022/10/05 12:39:02;;;;;;;5.80;2.85;;;16.40;99.90;;;;;;5079294;28;20469;-58
2022/10/05 12:41:37;;;;;;;6.70;2.80;;;16.40;99.90;;;;;;5081029;28;20109;-58
2022/10/05 12:44:11;;;;;;;5.70;3.10;;;16.40;99.90;;;;;;5081374;28;20243;-58
2022/10/05 12:47:01;;;;;;;7.90;2.92;;;16.40;99.90;;;;;;5080527;28;20040;-58
2022/10/05 12:49:39;;;;;;;5.10;2.80;;;16.40;99.90;;;;;;5081250;28;20071;-58
2022/10/05 12:52:16;;;;;;;7.55;3.10;;;16.50;99.90;;;;;;5081193;28;20045;-58
2022/10/05 12:54:52;;;;;;;5.53;2.90;;;16.40;99.90;;;;;;5079644;28;20092;-57
2022/10/05 12:57:37;;;;;;;5.30;2.92;;;16.40;99.90;;;;;;5080969;28;20072;-58
2022/10/05 13:00:07;;;;;;;6.10;3.40;;;16.50;99.90;;;;;;5062513;28;20101;-58
2022/10/05 13:03:00;;;;;;;6.22;2.95;;;16.50;99.90;;;;;;5081435;28;20047;-59
2022/10/05 13:05:26;;;;;;;8.02;3.38;;;16.50;99.90;;;;;;5078633;28;20056;-57
2022/10/05 13:08:19;;;;;;;6.13;3.25;;;16.60;99.90;;;;;;5079981;28;20486;-58
2022/10/05 13:11:17;;;;;;;6.68;3.65;;;16.40;99.90;;;;;;5080907;28;20112;-58
2022/10/05 13:14:01;;;;;;;7.45;3.50;;;16.40;99.90;;;;;;5080150;28;20062;-58
2022/10/05 13:16:33;;;;;;;8.68;3.75;;;16.50;99.90;;;;;;5079362;28;20048;-58
2022/10/05 13:19:05;;;;;;;5.97;3.05;;;16.50;99.90;;;;;;5080797;28;20036;-58
2022/10/05 13:21:52;;;;;;;7.60;3.65;;;16.50;99.90;;;;;;5077771;28;20040;-58
2022/10/05 13:24:26;;;;;;;6.50;3.45;;;16.60;99.90;;;;;;5077388;28;20071;-58
2022/10/05 13:26:59;;;;;;;6.50;3.30;;;16.60;99.90;;;;;;5078360;28;20036;-58
2022/10/05 13:29:32;;;;;;;6.55;3.25;;;16.60;99.90;;;;;;5079441;28;20539;-58
2022/10/05 13:32:38;;;;;;;6.72;3.22;;;16.60;99.90;;;;;;5080349;28;20044;-58
2022/10/05 13:35:19;;;;;;;6.68;3.20;;;16.60;99.90;;;;;;5079023;28;20063;-58
2022/10/05 13:38:16;;;;;;;6.45;3.42;;;16.70;99.90;;;;;;5079234;28;20090;-58
2022/10/05 13:40:54;;;;;;;6.60;3.38;;;16.80;99.90;;;;;;5079333;28;20113;-56
2022/10/05 13:43:29;;;;;;;7.05;3.78;;;16.80;99.90;;;;;;5079887;28;20097;-58
2022/10/05 13:46:03;;;;;;;9.18;4.10;;;16.80;99.90;;;;;;5076184;28;20044;-59
2022/10/05 13:48:58;;;;;;;6.53;4.03;;;16.90;99.90;;;;;;5077733;28;20417;-58
2022/10/05 13:51:33;;;;;;;6.68;3.78;;;16.90;99.90;;;;;;5078215;28;20041;-58
2022/10/05 13:54:19;;;;;;;8.07;3.88;;;16.90;99.90;;;;;;5079427;28;20043;-59
2022/10/05 13:56:53;;;;;;;8.18;4.50;;;16.90;99.90;;;;;;5079232;28;20041;-58
2022/10/05 13:59:37;;;;;;;8.85;4.10;;;16.90;99.90;;;;;;5079012;28;20044;-58
2022/10/05 14:02:11;;;;;;;7.63;3.92;;;17.00;99.90;;;;;;5077006;28;20048;-58
2022/10/05 14:04:42;;;;;;;7.53;4.10;;;17.10;99.90;;;;;;5079142;28;20094;-58
2022/10/05 14:08:01;;;;;;;7.28;4.00;;;17.10;99.90;;;;;;5079129;28;20060;-58